createdAt,value
2018-04-16T00:00:41.427Z,64.72
2018-04-16T00:03:08.917Z,65.05
2018-04-16T00:05:36.401Z,65.20
2018-04-16T00:08:03.877Z,65.65
2018-04-16T00:10:31.351Z,65.90
2018-04-16T00:12:58.849Z,65.93
2018-04-16T00:15:26.315Z,66.31
2018-04-16T00:17:53.823Z,66.50
2018-04-16T00:20:21.294Z,66.95
2018-04-16T00:22:48.856Z,67.30
2018-04-16T00:25:16.311Z,67.64
2018-04-16T00:27:43.759Z,68.06
2018-04-16T00:30:11.236Z,68.40
2018-04-16T00:35:46.812Z,68.32
2018-04-16T00:38:19.938Z,68.29
2018-04-16T00:40:52.939Z,68.31
2018-04-16T00:43:25.903Z,68.48
2018-04-16T00:45:59.085Z,68.25
2018-04-16T00:48:32.210Z,68.41
2018-04-16T00:51:05.321Z,68.52
2018-04-16T00:53:50.458Z,68.47
2018-04-16T00:56:23.807Z,68.45
2018-04-16T00:58:57.045Z,68.43
2018-04-16T01:01:30.179Z,68.24
2018-04-16T01:04:03.307Z,68.79
2018-04-16T01:09:35.744Z,68.94
2018-04-16T01:12:08.852Z,68.78
2018-04-16T01:14:42.015Z,68.93
2018-04-16T01:17:15.090Z,68.87
2018-04-16T01:19:48.264Z,68.84
2018-04-16T01:22:21.427Z,69.20
2018-04-16T01:24:54.363Z,69.17
2018-04-16T01:27:27.515Z,69.16
2018-04-16T01:30:00.578Z,69.13
2018-04-16T01:32:33.819Z,68.97
2018-04-16T01:35:06.849Z,69.06
2018-04-16T01:37:39.846Z,69.22
2018-04-16T01:40:13.131Z,69.40
2018-04-16T01:42:46.181Z,69.58
2018-04-16T01:45:19.354Z,69.43
2018-04-16T01:47:52.654Z,69.25
2018-04-16T01:50:25.671Z,69.01
2018-04-16T01:52:58.768Z,69.25
2018-04-16T01:55:31.928Z,69.21
2018-04-16T01:58:04.969Z,69.41
2018-04-16T02:00:38.289Z,69.58
2018-04-16T02:03:11.527Z,69.97
2018-04-16T02:05:44.535Z,69.59
2018-04-16T02:08:17.828Z,69.50
2018-04-16T02:10:50.773Z,69.32
2018-04-16T02:13:23.877Z,69.20
2018-04-16T02:15:56.903Z,69.12
2018-04-16T02:18:30.048Z,68.96
2018-04-16T02:21:03.064Z,68.92
2018-04-16T02:23:36.093Z,69.14
2018-04-16T02:26:09.094Z,69.24
2018-04-16T02:28:42.282Z,69.88
2018-04-16T02:31:15.507Z,69.79
2018-04-16T02:33:48.512Z,70.31
2018-04-16T02:36:21.674Z,69.97
2018-04-16T02:38:54.865Z,69.83
2018-04-16T02:41:27.991Z,69.73
2018-04-16T02:44:01.134Z,70.06
2018-04-16T02:46:34.506Z,69.34
2018-04-16T02:49:07.707Z,69.65
2018-04-16T02:51:40.726Z,68.78
2018-04-16T02:54:13.828Z,68.84
2018-04-16T02:56:47.036Z,68.63
2018-04-16T03:02:24.348Z,69.02
2018-04-16T03:04:57.402Z,68.26
2018-04-16T03:07:30.375Z,68.19
2018-04-16T03:10:03.432Z,68.98
2018-04-16T03:12:36.446Z,69.75
2018-04-16T03:15:09.465Z,69.69
2018-04-16T03:17:42.586Z,70.70
2018-04-16T03:20:15.613Z,70.99
2018-04-16T03:22:48.516Z,73.03
2018-04-16T03:25:21.678Z,74.76
2018-04-16T03:30:57.418Z,76.72
2018-04-16T03:33:30.454Z,78.37
2018-04-16T03:36:03.496Z,78.46
2018-04-16T03:38:36.769Z,78.66
2018-04-16T03:41:09.905Z,78.96
2018-04-16T03:43:42.971Z,79.22
2018-04-16T03:46:16.289Z,79.36
2018-04-16T03:48:49.437Z,79.37
2018-04-16T03:54:22.177Z,79.28
2018-04-16T03:56:49.685Z,79.44
2018-04-16T03:59:17.163Z,79.40
2018-04-16T04:01:44.653Z,79.09
2018-04-16T04:04:12.108Z,78.98
2018-04-16T04:06:39.616Z,79.13
2018-04-16T04:09:07.101Z,79.41
2018-04-16T04:11:34.587Z,79.34
2018-04-16T04:14:02.093Z,79.72
2018-04-16T04:16:29.577Z,79.52
2018-04-16T04:18:57.131Z,79.51
2018-04-16T04:21:24.593Z,80.07
2018-04-16T04:24:03.872Z,78.17
2018-04-16T04:26:43.177Z,79.11
2018-04-16T04:29:22.461Z,76.70
2018-04-16T04:31:49.946Z,76.25
2018-04-16T04:34:17.430Z,75.52
2018-04-16T04:36:44.945Z,75.53
2018-04-16T04:39:12.499Z,76.58
2018-04-16T04:41:39.990Z,77.02
2018-04-16T04:44:07.460Z,76.63
2018-04-16T04:46:35.040Z,77.05
2018-04-16T04:49:02.518Z,75.02
2018-04-16T04:51:30.102Z,71.25
2018-04-16T04:53:57.590Z,73.24
2018-04-16T04:56:25.197Z,72.17
2018-04-16T04:58:52.755Z,71.62
2018-04-16T05:01:20.266Z,71.83
2018-04-16T05:03:47.776Z,72.74
2018-04-16T05:06:15.268Z,72.05
2018-04-16T05:08:42.831Z,71.46
2018-04-16T05:11:10.319Z,70.22
2018-04-16T05:13:37.779Z,68.52
2018-04-16T05:16:05.272Z,68.25
2018-04-16T05:18:32.761Z,65.28
2018-04-16T05:21:00.239Z,64.82
2018-04-16T05:23:27.743Z,64.03
2018-04-16T05:25:55.216Z,65.54
2018-04-16T05:28:22.709Z,64.83
2018-04-16T05:30:50.198Z,64.30
2018-04-16T05:33:17.684Z,66.45
2018-04-16T05:35:45.191Z,67.62
2018-04-16T05:38:12.673Z,66.35
2018-04-16T05:40:40.152Z,64.91
2018-04-16T05:43:07.618Z,64.58
2018-04-16T05:45:35.106Z,64.08
2018-04-16T05:48:02.581Z,65.95
2018-04-16T05:50:30.070Z,65.47
2018-04-16T05:52:57.527Z,65.69
2018-04-16T05:55:25.001Z,66.08
2018-04-16T05:57:52.489Z,64.10
2018-04-16T06:00:19.995Z,64.12
2018-04-16T06:02:47.666Z,63.59
2018-04-16T06:05:15.156Z,63.59
2018-04-16T06:07:42.635Z,62.41
2018-04-16T06:10:10.169Z,60.57
2018-04-16T06:12:37.643Z,59.85
2018-04-16T06:15:05.113Z,61.15
2018-04-16T06:17:32.603Z,60.62
2018-04-16T06:20:00.087Z,61.17
2018-04-16T06:22:27.681Z,62.64
2018-04-16T06:24:55.159Z,62.79
2018-04-16T06:27:22.742Z,62.89
2018-04-16T06:29:50.173Z,62.64
2018-04-16T06:32:17.665Z,61.72
2018-04-16T06:34:45.146Z,61.77
2018-04-16T06:37:12.637Z,60.64
2018-04-16T06:39:40.090Z,60.60
2018-04-16T06:42:07.572Z,61.11
2018-04-16T06:44:35.063Z,60.83
2018-04-16T06:47:02.581Z,60.33
2018-04-16T06:49:30.085Z,60.96
2018-04-16T06:51:57.565Z,61.80
2018-04-16T06:54:25.075Z,61.70
2018-04-16T06:56:52.586Z,61.08
2018-04-16T06:59:20.067Z,61.65
2018-04-16T07:01:47.600Z,61.02
2018-04-16T07:04:15.079Z,60.95
2018-04-16T07:06:42.572Z,60.08
2018-04-16T07:09:10.067Z,59.70
2018-04-16T07:11:37.543Z,59.06
2018-04-16T07:14:05.006Z,58.44
2018-04-16T07:16:32.487Z,58.13
2018-04-16T07:18:59.979Z,58.32
2018-04-16T07:21:27.468Z,57.87
2018-04-16T07:23:55.000Z,57.97
2018-04-16T07:26:22.484Z,56.96
2018-04-16T07:28:49.990Z,56.80
2018-04-16T07:31:17.474Z,57.82
2018-04-16T07:33:44.980Z,56.47
2018-04-16T07:36:12.488Z,55.04
2018-04-16T07:38:39.960Z,56.30
2018-04-16T07:41:07.533Z,53.99
2018-04-16T07:43:35.016Z,55.86
2018-04-16T07:46:02.514Z,57.14
2018-04-16T07:48:29.984Z,56.21
2018-04-16T07:50:57.439Z,56.01
2018-04-16T07:53:25.019Z,57.18
2018-04-16T07:55:52.531Z,54.83
2018-04-16T07:58:20.027Z,55.53
2018-04-16T08:00:47.548Z,54.06
2018-04-16T08:03:15.039Z,55.44
2018-04-16T08:05:42.510Z,55.43
2018-04-16T08:08:10.002Z,53.98
2018-04-16T08:10:37.483Z,51.63
2018-04-16T08:13:05.042Z,55.51
2018-04-16T08:15:32.569Z,54.23
2018-04-16T08:18:00.059Z,56.42
2018-04-16T08:20:27.528Z,53.92
2018-04-16T08:22:55.129Z,55.27
2018-04-16T08:25:22.623Z,54.62
2018-04-16T08:27:50.105Z,52.99
2018-04-16T08:30:17.593Z,54.42
2018-04-16T08:32:45.078Z,53.50
2018-04-16T08:35:12.532Z,56.67
2018-04-16T08:37:40.029Z,55.87
2018-04-16T08:40:08.605Z,52.43
2018-04-16T08:42:36.260Z,54.13
2018-04-16T08:45:03.745Z,52.80
2018-04-16T08:47:31.207Z,53.64
2018-04-16T08:49:58.697Z,52.84
2018-04-16T08:52:26.165Z,54.14
2018-04-16T08:54:53.660Z,51.45
2018-04-16T08:57:21.130Z,46.30
2018-04-16T08:59:48.606Z,46.73
2018-04-16T09:02:16.097Z,50.87
2018-04-16T09:04:43.570Z,48.43
2018-04-16T09:07:11.068Z,48.04
2018-04-16T09:09:38.534Z,47.18
2018-04-16T09:12:06.077Z,48.19
2018-04-16T09:14:33.555Z,49.17
2018-04-16T09:17:01.081Z,47.27
2018-04-16T09:19:28.589Z,48.17
2018-04-16T09:21:56.071Z,49.01
2018-04-16T09:24:23.561Z,45.83
2018-04-16T09:26:51.038Z,46.65
2018-04-16T09:29:18.535Z,43.47
2018-04-16T09:31:46.000Z,45.14
2018-04-16T09:34:13.527Z,44.44
2018-04-16T09:36:40.981Z,43.05
2018-04-16T09:39:08.446Z,41.80
2018-04-16T09:41:35.928Z,42.88
2018-04-16T09:44:03.402Z,36.11
2018-04-16T09:46:30.894Z,39.09
2018-04-16T09:48:58.367Z,43.03
2018-04-16T09:51:25.865Z,40.73
2018-04-16T09:53:53.352Z,41.31
2018-04-16T09:56:20.827Z,41.79
2018-04-16T09:58:48.294Z,44.00
2018-04-16T10:01:21.777Z,38.64
2018-04-16T10:03:49.694Z,37.69
2018-04-16T10:06:17.164Z,38.01
2018-04-16T10:08:44.678Z,41.18
2018-04-16T10:11:12.152Z,35.10
2018-04-16T10:13:39.642Z,36.56
2018-04-16T10:16:07.146Z,41.33
2018-04-16T10:18:34.626Z,41.89
2018-04-16T10:21:02.117Z,34.35
2018-04-16T10:23:29.616Z,35.93
2018-04-16T10:25:57.112Z,36.99
2018-04-16T10:28:24.580Z,40.30
2018-04-16T10:30:52.052Z,38.86
2018-04-16T10:33:19.541Z,31.59
2018-04-16T10:35:47.029Z,32.85
2018-04-16T10:38:14.529Z,34.02
2018-04-16T10:40:42.189Z,37.75
2018-04-16T10:43:09.697Z,33.86
2018-04-16T10:45:37.153Z,34.92
2018-04-16T10:48:04.623Z,34.85
2018-04-16T10:50:32.085Z,39.21
2018-04-16T10:52:59.628Z,39.87
2018-04-16T10:55:27.095Z,38.52
2018-04-16T10:57:54.581Z,34.62
2018-04-16T11:00:22.053Z,32.42
2018-04-16T11:02:49.524Z,31.85
2018-04-16T11:05:17.008Z,33.26
2018-04-16T11:07:44.486Z,31.88
2018-04-16T11:10:12.052Z,30.51
2018-04-16T11:12:39.523Z,29.17
2018-04-16T11:15:06.993Z,33.68
2018-04-16T11:17:34.498Z,32.53
2018-04-16T11:20:02.009Z,29.55
2018-04-16T11:22:29.512Z,35.36
2018-04-16T11:24:57.103Z,33.62
2018-04-16T11:27:24.613Z,35.34
2018-04-16T11:29:52.125Z,33.86
2018-04-16T11:32:19.623Z,30.20
2018-04-16T11:34:47.103Z,29.48
2018-04-16T11:37:14.591Z,28.21
2018-04-16T11:39:42.056Z,29.60
2018-04-16T11:42:09.635Z,32.82
2018-04-16T11:44:37.103Z,25.95
2018-04-16T11:47:04.576Z,25.94
2018-04-16T11:49:32.046Z,27.85
2018-04-16T11:51:59.531Z,29.31
2018-04-16T11:54:27.210Z,26.76
2018-04-16T11:56:54.746Z,28.34
2018-04-16T11:59:22.229Z,28.94
2018-04-16T12:01:49.707Z,24.80
2018-04-16T12:04:17.229Z,26.36
2018-04-16T12:06:44.696Z,33.63
2018-04-16T12:09:12.201Z,29.29
2018-04-16T12:11:39.729Z,26.49
2018-04-16T12:14:07.194Z,22.74
2018-04-16T12:16:34.694Z,18.23
2018-04-16T12:19:02.190Z,19.92
2018-04-16T12:21:29.739Z,17.39
2018-04-16T12:23:57.214Z,16.33
2018-04-16T12:26:24.704Z,18.12
2018-04-16T12:28:52.190Z,19.12
2018-04-16T12:31:19.665Z,16.68
2018-04-16T12:33:47.170Z,16.44
2018-04-16T12:36:14.657Z,14.74
2018-04-16T12:38:42.147Z,17.31
2018-04-16T12:41:09.658Z,19.47
2018-04-16T12:43:38.470Z,21.66
2018-04-16T12:46:06.050Z,22.60
2018-04-16T12:48:33.535Z,22.93
2018-04-16T12:51:01.167Z,24.08
2018-04-16T12:53:28.688Z,17.42
2018-04-16T12:55:56.205Z,19.94
2018-04-16T12:58:23.747Z,18.75
2018-04-16T13:00:51.232Z,23.00
2018-04-16T13:03:18.876Z,21.88
2018-04-16T13:05:46.460Z,22.14
2018-04-16T13:08:13.936Z,24.82
2018-04-16T13:10:41.420Z,26.58
2018-04-16T13:13:08.877Z,26.59
2018-04-16T13:15:36.460Z,26.77
2018-04-16T13:18:03.958Z,28.91
2018-04-16T13:20:31.621Z,31.08
2018-04-16T13:22:59.135Z,35.68
2018-04-16T13:25:26.607Z,35.08
2018-04-16T13:27:54.131Z,34.53
2018-04-16T13:30:21.595Z,32.16
2018-04-16T13:32:49.126Z,36.58
2018-04-16T13:35:16.620Z,36.25
2018-04-16T13:37:44.169Z,34.62
2018-04-16T13:40:11.647Z,36.66
2018-04-16T13:42:39.174Z,29.62
2018-04-16T13:45:06.673Z,37.79
2018-04-16T13:47:34.220Z,31.14
2018-04-16T13:50:01.691Z,30.80
2018-04-16T13:52:29.169Z,28.58
2018-04-16T13:54:56.666Z,29.20
2018-04-16T13:57:24.226Z,29.47
2018-04-16T13:59:51.739Z,26.97
2018-04-16T14:02:19.276Z,27.47
2018-04-16T14:04:46.760Z,28.41
2018-04-16T14:07:14.228Z,30.08
2018-04-16T14:09:41.731Z,28.17
2018-04-16T14:12:09.209Z,34.15
2018-04-16T14:14:37.248Z,21.47
2018-04-16T14:17:04.859Z,18.75
2018-04-16T14:19:32.518Z,15.98
2018-04-16T14:22:00.359Z,14.89
2018-04-16T14:24:28.010Z,13.88
2018-04-16T14:26:55.970Z,15.68
2018-04-16T14:29:23.549Z,15.39
2018-04-16T14:31:53.990Z,15.68
2018-04-16T14:34:24.348Z,14.27
2018-04-16T14:36:54.864Z,13.30
2018-04-16T14:39:22.670Z,13.46
2018-04-16T14:41:50.427Z,14.57
2018-04-16T14:44:17.948Z,11.20
2018-04-16T14:46:45.449Z,14.43
2018-04-16T14:49:12.983Z,12.17
2018-04-16T14:51:40.455Z,10.27
2018-04-16T14:54:07.968Z,13.82
2018-04-16T14:56:35.951Z,14.09
2018-04-16T14:59:03.485Z,15.94
2018-04-16T15:01:31.045Z,15.22
2018-04-16T15:03:58.519Z,14.79
2018-04-16T15:06:26.103Z,16.86
2018-04-16T15:08:53.612Z,17.71
2018-04-16T15:11:21.077Z,18.63
2018-04-16T15:13:48.600Z,18.95
2018-04-16T15:16:16.206Z,20.69
2018-04-16T15:18:43.811Z,21.83
2018-04-16T15:21:11.419Z,23.21
2018-04-16T15:23:38.924Z,24.11
2018-04-16T15:26:06.447Z,26.64
2018-04-16T15:28:33.957Z,26.62
2018-04-16T15:31:01.444Z,26.94
2018-04-16T15:33:28.962Z,28.93
2018-04-16T15:35:56.465Z,32.15
2018-04-16T15:38:24.062Z,26.39
2018-04-16T15:40:51.632Z,25.70
2018-04-16T15:43:24.794Z,29.00
2018-04-16T15:45:52.309Z,30.27
2018-04-16T15:48:19.905Z,25.84
2018-04-16T15:50:47.384Z,26.02
2018-04-16T15:53:14.854Z,22.78
2018-04-16T15:55:43.306Z,24.85
2018-04-16T15:58:10.864Z,22.09
2018-04-16T16:00:38.377Z,23.43
2018-04-16T16:03:05.835Z,26.50
2018-04-16T16:05:33.302Z,24.01
2018-04-16T16:08:00.898Z,29.49
2018-04-16T16:10:28.504Z,26.99
2018-04-16T16:12:56.072Z,26.83
2018-04-16T16:15:23.699Z,28.66
2018-04-16T16:17:51.167Z,27.63
2018-04-16T16:20:18.664Z,25.75
2018-04-16T16:22:46.202Z,25.06
2018-04-16T16:25:13.688Z,24.52
2018-04-16T16:27:41.257Z,28.66
2018-04-16T16:30:08.873Z,24.59
2018-04-16T16:32:36.348Z,25.42
2018-04-16T16:35:03.939Z,30.32
2018-04-16T16:37:31.410Z,27.91
2018-04-16T16:39:59.062Z,30.86
2018-04-16T16:42:26.997Z,27.69
2018-04-16T16:44:54.604Z,25.76
2018-04-16T16:47:22.099Z,28.43
2018-04-16T16:49:49.878Z,25.82
2018-04-16T16:52:17.504Z,23.61
2018-04-16T16:54:44.971Z,25.80
2018-04-16T16:57:12.458Z,23.40
2018-04-16T16:59:40.044Z,29.06
2018-04-16T17:02:07.543Z,29.62
2018-04-16T17:04:35.186Z,29.36
2018-04-16T17:07:02.663Z,30.32
2018-04-16T17:09:30.213Z,30.73
2018-04-16T17:11:57.713Z,27.83
2018-04-16T17:14:25.229Z,34.27
2018-04-16T17:16:52.690Z,36.05
2018-04-16T17:19:20.192Z,36.44
2018-04-16T17:21:47.698Z,36.95
2018-04-16T17:24:15.241Z,37.46
2018-04-16T17:26:43.960Z,31.28
2018-04-16T17:29:11.430Z,31.35
2018-04-16T17:31:38.891Z,31.20
2018-04-16T17:34:06.384Z,31.63
2018-04-16T17:36:33.863Z,31.65
2018-04-16T17:39:01.420Z,35.33
2018-04-16T17:41:28.931Z,35.92
2018-04-16T17:43:56.463Z,35.19
2018-04-16T17:46:24.181Z,34.86
2018-04-16T17:48:51.810Z,35.29
2018-04-16T17:51:19.347Z,35.58
2018-04-16T17:53:46.878Z,35.30
2018-04-16T17:56:14.390Z,36.69
2018-04-16T17:58:41.864Z,36.88
2018-04-16T18:01:09.341Z,38.40
2018-04-16T18:03:36.913Z,40.41
2018-04-16T18:06:04.955Z,40.56
2018-04-16T18:08:32.677Z,41.31
2018-04-16T18:11:00.200Z,40.11
2018-04-16T18:13:27.690Z,39.52
2018-04-16T18:15:56.426Z,38.66
2018-04-16T18:18:24.313Z,40.28
2018-04-16T18:20:51.850Z,40.00
2018-04-16T18:23:20.898Z,40.14
2018-04-16T18:25:48.475Z,39.89
2018-04-16T18:28:15.953Z,40.00
2018-04-16T18:30:44.022Z,40.59
2018-04-16T18:33:11.553Z,53.85
2018-04-16T18:35:39.065Z,49.47
2018-04-16T18:38:06.549Z,45.16
2018-04-16T18:40:34.057Z,50.16
2018-04-16T18:43:01.740Z,49.29
2018-04-16T18:45:29.397Z,48.63
2018-04-16T18:47:56.940Z,42.47
2018-04-16T18:50:24.437Z,48.03
2018-04-16T18:52:54.503Z,48.87
2018-04-16T18:55:22.081Z,43.79
2018-04-16T18:57:49.586Z,47.64
2018-04-16T19:00:17.092Z,44.26
2018-04-16T19:02:46.014Z,44.86
2018-04-16T19:05:15.266Z,36.87
2018-04-16T19:07:42.842Z,37.47
2018-04-16T19:10:10.331Z,39.00
2018-04-16T19:12:38.673Z,38.34
2018-04-16T19:15:06.140Z,39.04
2018-04-16T19:20:33.292Z,41.21
2018-04-16T19:23:10.600Z,41.44
2018-04-16T19:25:39.319Z,41.72
2018-04-16T19:28:16.674Z,42.19
2018-04-16T19:30:45.555Z,42.91
2018-04-16T19:33:18.753Z,44.32
2018-04-16T19:35:46.459Z,44.63
2018-04-16T19:38:14.187Z,45.44
2018-04-16T19:40:41.880Z,45.92
2018-04-16T19:43:09.788Z,46.70
2018-04-16T19:45:38.367Z,46.88
2018-04-16T19:48:05.882Z,47.32
2018-04-16T19:50:34.831Z,47.87
2018-04-16T19:53:02.376Z,48.22
2018-04-16T19:58:28.963Z,49.36
2018-04-16T20:00:56.494Z,50.10
2018-04-16T20:03:29.569Z,50.14
2018-04-16T20:05:57.072Z,49.64
2018-04-16T20:08:24.583Z,50.29
2018-04-16T20:10:52.771Z,50.88
2018-04-16T20:13:20.281Z,51.74
2018-04-16T20:15:47.890Z,52.36
2018-04-16T20:18:15.362Z,52.64
2018-04-16T20:20:42.838Z,55.44
2018-04-16T20:23:10.307Z,61.96
2018-04-16T20:25:37.901Z,54.89
2018-04-16T20:28:05.603Z,51.85
2018-04-16T20:30:33.097Z,53.12
2018-04-16T20:33:00.587Z,52.86
2018-04-16T20:35:28.332Z,52.66
2018-04-16T20:38:00.615Z,56.35
2018-04-16T20:40:28.273Z,51.00
2018-04-16T20:42:55.798Z,51.11
2018-04-16T20:45:23.281Z,51.58
2018-04-16T20:47:51.458Z,53.06
2018-04-16T20:50:23.527Z,53.99
2018-04-16T20:52:53.987Z,55.09
2018-04-16T20:55:21.706Z,55.06
2018-04-16T20:57:49.264Z,55.58
2018-04-16T21:00:20.705Z,55.88
2018-04-16T21:02:49.388Z,55.95
2018-04-16T21:05:17.305Z,55.13
2018-04-16T21:07:45.812Z,55.25
2018-04-16T21:10:13.336Z,52.98
2018-04-16T21:12:40.883Z,52.57
2018-04-16T21:15:08.490Z,50.73
2018-04-16T21:17:36.130Z,50.14
2018-04-16T21:20:03.639Z,50.77
2018-04-16T21:22:31.191Z,50.88
2018-04-16T21:24:58.679Z,51.39
2018-04-16T21:27:26.532Z,50.91
2018-04-16T21:29:54.663Z,50.25
2018-04-16T21:32:22.200Z,50.35
2018-04-16T21:34:52.802Z,50.00
2018-04-16T21:37:22.717Z,50.66
2018-04-16T21:39:50.241Z,51.66
2018-04-16T21:42:18.136Z,49.54
2018-04-16T21:44:46.074Z,49.12
2018-04-16T21:47:13.558Z,48.90
2018-04-16T21:49:41.895Z,48.76
2018-04-16T21:52:09.367Z,48.73
2018-04-16T21:54:37.224Z,48.42
2018-04-16T21:57:04.806Z,48.28
2018-04-16T21:59:32.465Z,47.78
2018-04-16T22:02:00.005Z,47.13
2018-04-16T22:04:29.727Z,47.73
2018-04-16T22:06:57.366Z,47.15
2018-04-16T22:09:24.868Z,46.91
2018-04-16T22:11:52.622Z,47.60
2018-04-16T22:14:20.088Z,47.80
2018-04-16T22:16:47.563Z,47.74
2018-04-16T22:19:15.037Z,48.20
2018-04-16T22:21:43.292Z,48.46
2018-04-16T22:24:10.989Z,48.75
2018-04-16T22:26:38.477Z,48.36
2018-04-16T22:29:05.959Z,49.35
2018-04-16T22:31:33.478Z,49.89
2018-04-16T22:34:00.953Z,50.13
2018-04-16T22:36:28.635Z,50.68
2018-04-16T22:38:56.115Z,51.11
2018-04-16T22:41:23.630Z,51.97
2018-04-16T22:43:51.140Z,52.43
2018-04-16T22:46:19.060Z,52.86
2018-04-16T22:48:46.566Z,52.68
2018-04-16T22:51:14.027Z,53.93
2018-04-16T22:53:41.509Z,54.71
2018-04-16T22:56:09.131Z,55.52
2018-04-16T22:58:36.657Z,56.68
2018-04-16T23:01:04.131Z,57.69
2018-04-16T23:03:31.603Z,58.91
2018-04-16T23:05:59.131Z,59.34
2018-04-16T23:08:26.603Z,59.86
2018-04-16T23:10:54.106Z,59.96
2018-04-16T23:13:22.067Z,59.99
2018-04-16T23:15:49.564Z,59.66
2018-04-16T23:18:17.053Z,60.60
2018-04-16T23:20:44.526Z,60.23
2018-04-16T23:23:12.041Z,60.46
2018-04-16T23:25:39.643Z,60.08
2018-04-16T23:28:07.329Z,59.71
2018-04-16T23:30:34.951Z,60.35
2018-04-16T23:33:02.566Z,60.98
2018-04-16T23:35:30.030Z,60.87
2018-04-16T23:37:57.592Z,60.90
2018-04-16T23:40:25.061Z,61.61
2018-04-16T23:42:52.592Z,61.02
2018-04-16T23:45:20.076Z,61.01
2018-04-16T23:47:47.564Z,61.23
2018-04-16T23:50:15.033Z,60.41
2018-04-16T23:52:42.529Z,60.87
2018-04-16T23:55:09.994Z,61.59
2018-04-16T23:57:37.504Z,61.76
